Alma, Arkansas
Current Conditions -  °F | °C
As of 8:53 AM on Sunday 21 Dec 2014 (Local Time) from KFSM Reporting Station
Overcast Overcast  
Wind Chill: 40°   Ceiling: 4300
Heat Index: 44°   Visibility: 8mi
Dew Point: 39°   Wind: 7mph
Humidity: 82%   Direction: 70°ENE
Pressure: 30.13"   Gusts: NA
Location:  35.48°N, 94.22°W
Report Text: KFSM 211453Z 07006KT 8SM OVC043 07/04 A3013 RMK AO2 SLP203 T00670039 58005
Loading
Personal Weather Stations






























Interactive Weather Map New forecast layout! Learn more

10-Day Weather Forecast

Advertisements
Track Severe Weather on mobile